Time;durP1;ratioP1;P1;durP2;ratioP2;P2;SDS_P1;SDS_P2;PMS_P1;PMS_P2;Temp;Humidity;BMP_temperature;BMP_pressure;BME280_temperature;BME280_humidity;BME280_pressure;Samples;Min_cycle;Max_cycle;Signal;HPM_P1;HPM_P2
2021/08/30 00:02:27;;;;;;;1.40;1.30;;;29.60;54.10;;;;;;5023235;28;20427;-44
2021/08/30 00:04:59;;;;;;;3.40;2.03;;;29.50;52.60;;;;;;5023485;28;20458;-46
2021/08/30 00:07:30;;;;;;;1.97;1.87;;;29.40;53.80;;;;;;5023373;28;20518;-51
2021/08/30 00:10:03;;;;;;;2.57;2.10;;;29.40;54.40;;;;;;5022832;28;20449;-47
2021/08/30 00:12:39;;;;;;;2.03;1.93;;;29.30;55.20;;;;;;5022882;28;20521;-48
2021/08/30 00:15:12;;;;;;;2.23;1.70;;;29.20;55.30;;;;;;5022978;28;20455;-51
2021/08/30 00:17:45;;;;;;;2.60;2.40;;;29.20;54.70;;;;;;5022966;28;20526;-47
2021/08/30 00:20:19;;;;;;;2.07;1.87;;;29.10;54.50;;;;;;5023034;28;20425;-51
2021/08/30 00:22:51;;;;;;;2.50;1.80;;;29.00;55.40;;;;;;5022563;28;20449;-49
2021/08/30 00:25:24;;;;;;;2.20;2.03;;;28.90;54.70;;;;;;5022289;28;20451;-52
2021/08/30 00:27:58;;;;;;;2.07;1.97;;;28.90;54.60;;;;;;5023001;27;20539;-52
2021/08/30 00:30:29;;;;;;;1.47;1.37;;;28.80;53.70;;;;;;5023010;28;20506;-51
2021/08/30 00:33:01;;;;;;;2.00;1.80;;;28.70;54.80;;;;;;5022704;28;20430;-45
2021/08/30 00:35:32;;;;;;;3.70;1.90;;;28.60;55.10;;;;;;5022991;28;20446;-47
2021/08/30 00:38:03;;;;;;;1.73;1.40;;;28.60;55.00;;;;;;5022395;28;20488;-48
2021/08/30 00:40:36;;;;;;;2.07;1.90;;;28.60;53.80;;;;;;5022482;28;20577;-47
2021/08/30 00:43:08;;;;;;;2.13;2.03;;;28.50;54.30;;;;;;5022617;28;20495;-51
2021/08/30 00:45:40;;;;;;;2.30;1.83;;;28.40;55.10;;;;;;5039211;27;20490;-50
2021/08/30 00:48:11;;;;;;;2.47;2.07;;;28.30;55.90;;;;;;5042547;28;20479;-52
2021/08/30 00:50:42;;;;;;;1.80;1.70;;;28.30;57.00;;;;;;5042757;28;20827;-48
2021/08/30 00:53:16;;;;;;;1.77;1.67;;;28.30;56.30;;;;;;5042226;28;20461;-43
2021/08/30 00:55:49;;;;;;;1.60;1.50;;;28.20;54.80;;;;;;5036355;28;20459;-47
2021/08/30 00:58:20;;;;;;;2.93;1.50;;;28.10;55.70;;;;;;5022400;28;21008;-45
2021/08/30 01:00:51;;;;;;;1.90;1.80;;;28.10;56.50;;;;;;5022642;28;20452;-47
2021/08/30 01:03:23;;;;;;;2.30;1.53;;;27.90;56.30;;;;;;5022538;28;20481;-46
2021/08/30 01:06:04;;;;;;;2.97;1.77;;;27.90;57.00;;;;;;5021540;28;20521;-45
2021/08/30 01:08:39;;;;;;;1.90;1.80;;;27.80;58.40;;;;;;5021984;28;20474;-49
2021/08/30 01:11:17;;;;;;;2.37;2.17;;;27.70;59.60;;;;;;5022074;28;20457;-44
2021/08/30 01:13:54;;;;;;;2.30;1.67;;;27.70;60.00;;;;;;5021822;28;20482;-46
2021/08/30 01:16:28;;;;;;;1.87;1.77;;;27.60;60.50;;;;;;5022231;28;20451;-46
2021/08/30 01:19:00;;;;;;;2.50;2.30;;;27.60;61.60;;;;;;5021949;28;20538;-46
2021/08/30 01:21:36;;;;;;;2.90;2.70;;;27.50;61.10;;;;;;5022190;28;20475;-46
2021/08/30 01:24:11;;;;;;;3.00;2.70;;;27.50;61.30;;;;;;5052171;28;20427;-51
2021/08/30 01:26:47;;;;;;;2.00;1.90;;;27.50;62.00;;;;;;5061648;28;20452;-44
2021/08/30 01:29:25;;;;;;;2.40;2.20;;;27.40;62.80;;;;;;5061277;28;20514;-45
2021/08/30 01:32:05;;;;;;;2.27;2.00;;;27.30;62.70;;;;;;5061810;28;20800;-48
2021/08/30 01:34:38;;;;;;;2.07;1.97;;;27.20;63.60;;;;;;5061727;28;20455;-50
2021/08/30 01:37:10;;;;;;;2.00;1.90;;;27.20;64.40;;;;;;5061631;28;20463;-49
2021/08/30 01:39:43;;;;;;;1.97;1.83;;;27.20;64.20;;;;;;5061198;28;20425;-51
2021/08/30 01:42:15;;;;;;;1.80;1.70;;;27.10;64.80;;;;;;5061652;28;20429;-47
2021/08/30 01:44:47;;;;;;;2.30;2.10;;;27.10;65.00;;;;;;5043058;28;20858;-44
2021/08/30 01:47:19;;;;;;;3.17;1.90;;;27.00;65.40;;;;;;5021941;28;20524;-45
2021/08/30 01:50:00;;;;;;;2.20;2.00;;;26.90;65.60;;;;;;5021943;28;20538;-48
2021/08/30 01:52:33;;;;;;;4.27;2.43;;;26.90;66.40;;;;;;5021807;28;20450;-45
2021/08/30 01:55:12;;;;;;;2.20;2.00;;;26.80;66.90;;;;;;5021514;28;20435;-48
2021/08/30 02:00:42;;;;;;;2.10;1.90;;;26.70;67.70;;;;;;5021471;28;20482;-50
2021/08/30 02:00:47;;;;;;;2.03;1.90;;;26.70;68.00;;;;;;5021711;28;20426;-51
2021/08/30 02:03:20;;;;;;;3.50;2.30;;;26.60;68.50;;;;;;5021515;28;20533;-47
2021/08/30 02:05:55;;;;;;;2.10;2.00;;;26.60;68.90;;;;;;5021315;28;20792;-46
2021/08/30 02:08:28;;;;;;;1.87;1.77;;;26.50;69.50;;;;;;5021210;28;20454;-45
2021/08/30 02:11:01;;;;;;;2.07;1.97;;;26.40;70.10;;;;;;5021225;28;20826;-45
2021/08/30 02:13:32;;;;;;;2.40;2.20;;;26.30;71.20;;;;;;5020966;28;20448;-48
2021/08/30 02:16:05;;;;;;;2.10;1.90;;;26.20;72.10;;;;;;5021551;28;20480;-46
2021/08/30 02:18:39;;;;;;;2.33;2.17;;;26.10;73.10;;;;;;5021279;28;20967;-52
2021/08/30 02:21:17;;;;;;;2.03;1.73;;;26.00;74.10;;;;;;5021144;28;20506;-45
2021/08/30 02:23:59;;;;;;;1.97;1.80;;;25.90;75.00;;;;;;5020503;28;20530;-47
2021/08/30 02:26:33;;;;;;;2.80;2.23;;;25.80;75.40;;;;;;5021104;28;20476;-43
2021/08/30 02:29:08;;;;;;;1.97;1.80;;;25.70;75.70;;;;;;5020608;28;20503;-45
2021/08/30 02:31:42;;;;;;;2.10;1.90;;;25.50;76.00;;;;;;5021240;28;20806;-45
2021/08/30 02:34:14;;;;;;;2.17;1.97;;;25.30;76.40;;;;;;5021040;28;20502;-45
2021/08/30 02:36:49;;;;;;;2.03;1.93;;;25.30;76.80;;;;;;5021015;28;20454;-45
2021/08/30 02:39:21;;;;;;;2.63;2.10;;;25.00;77.00;;;;;;5020231;28;20608;-49
2021/08/30 02:41:53;;;;;;;1.93;1.73;;;24.90;77.30;;;;;;5021052;28;20459;-43
2021/08/30 02:44:25;;;;;;;2.07;1.83;;;24.70;78.00;;;;;;5020486;28;20916;-46
2021/08/30 02:46:57;;;;;;;3.50;1.93;;;24.60;78.60;;;;;;5020846;28;20527;-47
2021/08/30 02:49:29;;;;;;;2.00;1.87;;;24.50;79.30;;;;;;5020965;28;20483;-42
2021/08/30 02:52:05;;;;;;;1.90;1.80;;;24.40;79.90;;;;;;5020860;28;20447;-41
2021/08/30 02:54:37;;;;;;;1.90;1.80;;;24.20;80.40;;;;;;5020078;28;20580;-48
2021/08/30 02:57:09;;;;;;;2.80;1.80;;;24.10;81.10;;;;;;5020516;28;20446;-45
2021/08/30 02:59:41;;;;;;;2.07;1.97;;;24.00;81.80;;;;;;5020569;28;20543;-47
2021/08/30 03:02:13;;;;;;;2.20;1.80;;;23.80;82.30;;;;;;5020745;28;20425;-41
2021/08/30 03:04:45;;;;;;;2.03;1.90;;;23.80;82.70;;;;;;5020636;28;20465;-44
2021/08/30 03:07:19;;;;;;;3.97;2.20;;;23.60;83.30;;;;;;5020938;28;20439;-42
2021/08/30 03:09:50;;;;;;;5.70;1.90;;;23.50;84.00;;;;;;5019822;28;20890;-48
2021/08/30 03:12:23;;;;;;;3.70;1.73;;;23.50;84.40;;;;;;5020299;28;20514;-45
2021/08/30 03:14:56;;;;;;;2.70;2.30;;;23.40;84.70;;;;;;5020379;28;20516;-49
2021/08/30 03:17:27;;;;;;;1.67;1.57;;;23.30;85.30;;;;;;5020355;28;20455;-43
2021/08/30 03:19:59;;;;;;;5.03;2.23;;;23.20;85.90;;;;;;5020523;28;20482;-42
2021/08/30 03:22:35;;;;;;;2.27;2.07;;;23.10;86.90;;;;;;5022364;28;20964;-42
2021/08/30 03:25:13;;;;;;;1.93;1.83;;;23.00;87.90;;;;;;5039649;28;20485;-46
2021/08/30 03:27:47;;;;;;;3.53;1.90;;;22.90;88.60;;;;;;5039563;28;20484;-44
2021/08/30 03:30:20;;;;;;;2.37;1.93;;;22.80;89.10;;;;;;5039115;28;20512;-45
2021/08/30 03:32:53;;;;;;;1.83;1.73;;;22.70;90.00;;;;;;5040061;28;20449;-43
2021/08/30 03:35:24;;;;;;;2.73;2.10;;;22.60;90.50;;;;;;5039986;28;20425;-42
2021/08/30 03:37:58;;;;;;;2.50;2.30;;;22.50;91.00;;;;;;5039709;28;20472;-44
2021/08/30 03:40:30;;;;;;;2.70;2.20;;;22.50;91.10;;;;;;5039797;28;20499;-47
2021/08/30 03:43:02;;;;;;;2.90;2.03;;;22.30;91.40;;;;;;5039489;28;20449;-47
2021/08/30 03:45:34;;;;;;;2.70;2.00;;;22.30;91.70;;;;;;5039962;28;20430;-48
2021/08/30 03:48:06;;;;;;;4.40;2.20;;;22.20;92.10;;;;;;5039757;28;20450;-44
2021/08/30 03:50:38;;;;;;;3.00;2.47;;;22.10;92.50;;;;;;5039848;28;20466;-42
2021/08/30 03:53:11;;;;;;;3.23;2.10;;;22.00;93.10;;;;;;5039713;28;20422;-46
2021/08/30 03:55:43;;;;;;;4.10;2.03;;;21.90;93.60;;;;;;5034460;28;20429;-49
2021/08/30 03:58:16;;;;;;;2.37;2.17;;;21.80;94.10;;;;;;5019496;28;20859;-51
2021/08/30 04:00:48;;;;;;;3.10;2.27;;;21.70;94.60;;;;;;5019858;28;20417;-48
2021/08/30 04:03:21;;;;;;;2.60;2.40;;;21.60;95.30;;;;;;5019939;28;20526;-49
2021/08/30 04:05:53;;;;;;;2.63;2.03;;;21.50;96.00;;;;;;5019812;28;20455;-50
2021/08/30 04:08:26;;;;;;;4.03;2.47;;;21.40;96.70;;;;;;5019522;28;20429;-49
2021/08/30 04:10:57;;;;;;;3.43;2.17;;;21.40;97.30;;;;;;5019423;28;20446;-44
2021/08/30 04:13:29;;;;;;;2.73;2.20;;;21.20;97.90;;;;;;5019522;28;20421;-43
2021/08/30 04:16:00;;;;;;;5.57;2.50;;;21.10;98.60;;;;;;5019607;28;21002;-43
2021/08/30 04:18:32;;;;;;;4.00;2.30;;;21.00;99.10;;;;;;5019623;28;20469;-47
2021/08/30 04:21:04;;;;;;;3.97;2.10;;;20.80;99.70;;;;;;5019504;28;20457;-40
2021/08/30 04:23:37;;;;;;;6.63;2.70;;;20.70;99.90;;;;;;5019445;28;20951;-44
2021/08/30 04:26:08;;;;;;;5.30;3.30;;;20.60;99.90;;;;;;5019275;28;20450;-43
2021/08/30 04:28:39;;;;;;;4.83;2.20;;;20.50;99.90;;;;;;5019271;28;20454;-41
2021/08/30 04:31:10;;;;;;;3.53;2.40;;;20.50;99.90;;;;;;5019643;28;20421;-40
2021/08/30 04:33:42;;;;;;;2.93;2.63;;;20.40;99.90;;;;;;5019490;28;20514;-45
2021/08/30 04:36:13;;;;;;;5.23;3.10;;;20.30;99.90;;;;;;5019514;28;20438;-43
2021/08/30 04:38:46;;;;;;;4.23;2.70;;;20.20;99.90;;;;;;5019129;28;20454;-40
2021/08/30 04:41:17;;;;;;;4.90;2.83;;;20.10;99.90;;;;;;5021770;28;20496;-42
2021/08/30 04:43:48;;;;;;;4.10;2.80;;;20.00;99.90;;;;;;5023922;27;20476;-42
2021/08/30 04:46:20;;;;;;;3.37;2.40;;;19.90;99.90;;;;;;5042895;28;20466;-41
2021/08/30 04:48:51;;;;;;;5.43;2.77;;;19.80;99.90;;;;;;5042312;28;20442;-41
2021/08/30 04:51:22;;;;;;;5.30;2.57;;;19.80;99.90;;;;;;5042864;28;20458;-41
2021/08/30 04:53:55;;;;;;;6.60;2.80;;;19.70;99.90;;;;;;5042492;28;20426;-43
2021/08/30 04:56:26;;;;;;;5.17;2.37;;;19.60;99.90;;;;;;5031345;28;20506;-40
2021/08/30 04:58:57;;;;;;;8.30;3.47;;;19.50;99.90;;;;;;5022349;28;20511;-44
2021/08/30 05:01:28;;;;;;;4.77;2.63;;;19.40;99.90;;;;;;5022744;28;20450;-41
2021/08/30 05:04:00;;;;;;;4.03;2.50;;;19.40;99.90;;;;;;5022719;28;20482;-43
2021/08/30 05:06:31;;;;;;;4.33;3.00;;;19.30;99.90;;;;;;5022889;28;20435;-41
2021/08/30 05:09:04;;;;;;;3.83;2.90;;;19.20;99.90;;;;;;5021988;28;20450;-43
2021/08/30 05:11:38;;;;;;;5.13;3.17;;;19.20;99.90;;;;;;5022757;28;20915;-43
2021/08/30 05:14:09;;;;;;;5.70;2.70;;;19.10;99.90;;;;;;5022003;28;20454;-42
2021/08/30 05:16:40;;;;;;;2.63;2.23;;;19.10;99.90;;;;;;5022439;28;20450;-43
2021/08/30 05:19:11;;;;;;;3.90;2.67;;;19.00;99.90;;;;;;5021899;28;20450;-42
2021/08/30 05:21:43;;;;;;;5.20;3.30;;;18.90;99.90;;;;;;5022290;28;20967;-42
2021/08/30 05:24:16;;;;;;;4.93;2.80;;;18.80;99.90;;;;;;5054207;28;20577;-40
2021/08/30 05:26:47;;;;;;;6.00;2.80;;;18.90;99.90;;;;;;5062112;28;20444;-44
2021/08/30 05:29:18;;;;;;;4.30;2.50;;;18.70;99.90;;;;;;5061271;28;20454;-41
2021/08/30 05:31:49;;;;;;;4.60;2.90;;;18.60;99.90;;;;;;5062191;28;20449;-43
2021/08/30 05:34:21;;;;;;;3.50;2.67;;;18.60;99.90;;;;;;5061793;28;20460;-41
2021/08/30 05:36:52;;;;;;;3.90;2.33;;;18.50;99.90;;;;;;5061775;28;20441;-42
2021/08/30 05:39:25;;;;;;;5.50;3.10;;;18.50;99.90;;;;;;5060979;28;20437;-41
2021/08/30 05:41:56;;;;;;;8.30;3.03;;;18.40;99.90;;;;;;5061836;28;20464;-41
2021/08/30 05:44:27;;;;;;;5.40;2.70;;;18.40;99.90;;;;;;5047653;28;20450;-42
2021/08/30 05:46:59;;;;;;;5.00;3.10;;;18.40;99.90;;;;;;5022059;28;20451;-45
2021/08/30 05:49:30;;;;;;;3.90;2.70;;;18.30;99.90;;;;;;5021574;28;20425;-48
2021/08/30 05:52:01;;;;;;;4.43;3.87;;;18.20;99.90;;;;;;5021883;28;20500;-44
2021/08/30 05:54:36;;;;;;;5.60;3.13;;;18.10;99.90;;;;;;5021597;28;20442;-47
2021/08/30 05:57:07;;;;;;;5.37;2.90;;;18.00;99.90;;;;;;5022197;28;20451;-43
2021/08/30 05:59:39;;;;;;;6.67;3.60;;;18.00;99.90;;;;;;5021868;28;20462;-44
2021/08/30 06:02:11;;;;;;;4.27;2.90;;;17.90;99.90;;;;;;5022237;28;20920;-44
2021/08/30 06:04:42;;;;;;;4.73;2.97;;;17.80;99.90;;;;;;5022008;28;20454;-44
2021/08/30 06:07:13;;;;;;;3.33;2.77;;;17.80;99.90;;;;;;5022252;28;20487;-41
2021/08/30 06:09:46;;;;;;;6.93;3.40;;;17.80;99.90;;;;;;5021194;28;20482;-45
2021/08/30 06:12:17;;;;;;;5.33;3.53;;;17.80;99.90;;;;;;5021603;28;20459;-45
2021/08/30 06:14:48;;;;;;;6.70;2.83;;;17.80;99.90;;;;;;5021795;28;20455;-44
2021/08/30 06:17:19;;;;;;;5.70;2.97;;;17.70;99.90;;;;;;5022024;28;20476;-43
2021/08/30 06:19:50;;;;;;;5.47;3.10;;;17.60;99.90;;;;;;5021584;28;20458;-44
2021/08/30 06:22:22;;;;;;;4.27;3.10;;;17.50;99.90;;;;;;5022660;28;20547;-45
2021/08/30 06:24:55;;;;;;;6.90;2.90;;;17.50;99.90;;;;;;5040992;28;20491;-44
2021/08/30 06:27:27;;;;;;;5.50;3.57;;;17.40;99.90;;;;;;5041344;28;20506;-47
2021/08/30 06:29:58;;;;;;;4.53;3.10;;;17.40;99.90;;;;;;5041321;28;20484;-45
2021/08/30 06:32:29;;;;;;;4.43;3.03;;;17.40;99.90;;;;;;5041310;28;20449;-48
2021/08/30 06:35:00;;;;;;;5.97;2.90;;;17.30;99.90;;;;;;5041458;28;20608;-41
2021/08/30 06:37:31;;;;;;;4.13;3.03;;;17.30;99.90;;;;;;5041622;28;20437;-43
2021/08/30 06:40:04;;;;;;;5.87;2.93;;;17.20;99.90;;;;;;5040610;28;20457;-44
2021/08/30 06:42:35;;;;;;;4.40;2.63;;;17.20;99.90;;;;;;5040946;28;20458;-44
2021/08/30 06:45:08;;;;;;;7.27;3.00;;;17.10;99.90;;;;;;5041130;28;20450;-47
2021/08/30 06:47:40;;;;;;;3.80;2.83;;;17.10;99.90;;;;;;5041301;28;20473;-44
2021/08/30 06:50:12;;;;;;;4.50;3.33;;;17.00;99.90;;;;;;5040580;28;20506;-43
2021/08/30 06:52:43;;;;;;;4.43;3.13;;;17.00;99.90;;;;;;5040925;28;20882;-44
2021/08/30 06:55:16;;;;;;;5.57;3.13;;;17.00;99.90;;;;;;5039761;28;20452;-42
2021/08/30 06:57:47;;;;;;;6.20;3.80;;;16.90;99.90;;;;;;5020519;28;20450;-48
2021/08/30 07:00:19;;;;;;;7.87;3.40;;;16.90;99.90;;;;;;5020910;28;20488;-45
2021/08/30 07:02:50;;;;;;;4.20;3.20;;;16.80;99.90;;;;;;5020641;28;20485;-48
2021/08/30 07:05:22;;;;;;;4.93;3.30;;;16.80;99.90;;;;;;5019896;28;20456;-49
2021/08/30 07:07:53;;;;;;;4.80;3.47;;;16.80;99.90;;;;;;5020620;28;20474;-42
2021/08/30 07:10:26;;;;;;;4.90;3.10;;;16.70;99.90;;;;;;5020292;28;20482;-41
2021/08/30 07:12:57;;;;;;;6.00;3.20;;;16.70;99.90;;;;;;5020513;28;20442;-44
2021/08/30 07:15:29;;;;;;;6.10;3.77;;;16.60;99.90;;;;;;5020889;28;20796;-51
2021/08/30 07:18:00;;;;;;;4.67;3.13;;;16.60;99.90;;;;;;5020791;28;20443;-44
2021/08/30 07:20:31;;;;;;;4.10;3.33;;;16.50;99.90;;;;;;5020454;28;20558;-42
2021/08/30 07:23:22;;;;;;;6.47;3.17;;;16.50;99.90;;;;;;5026876;28;20465;-46
2021/08/30 07:25:55;;;;;;;6.83;3.17;;;16.50;99.90;;;;;;5040160;28;20609;-47
2021/08/30 07:28:26;;;;;;;7.60;3.73;;;16.40;99.90;;;;;;5039771;28;20450;-44
2021/08/30 07:30:57;;;;;;;4.80;3.30;;;16.30;99.90;;;;;;5039863;28;20481;-43
2021/08/30 07:33:28;;;;;;;6.30;3.43;;;16.30;99.90;;;;;;5040341;28;20478;-43
2021/08/30 07:35:59;;;;;;;4.60;3.07;;;16.30;99.90;;;;;;5040155;28;20502;-48
2021/08/30 07:38:31;;;;;;;4.33;2.97;;;16.20;99.90;;;;;;5039965;28;20429;-47
2021/08/30 07:41:03;;;;;;;6.47;3.80;;;16.10;99.90;;;;;;5039812;28;20449;-44
2021/08/30 07:43:35;;;;;;;6.30;3.10;;;16.10;99.90;;;;;;5039922;28;20441;-46
2021/08/30 07:46:06;;;;;;;7.23;3.50;;;16.00;99.90;;;;;;5040201;28;20508;-42
2021/08/30 07:48:37;;;;;;;7.70;4.30;;;15.90;99.90;;;;;;5039897;28;20449;-48
2021/08/30 07:51:08;;;;;;;8.30;3.77;;;16.00;99.90;;;;;;5039493;28;20533;-48
2021/08/30 07:53:40;;;;;;;7.10;3.60;;;16.00;99.90;;;;;;5039547;28;20490;-48
2021/08/30 07:56:13;;;;;;;7.10;3.40;;;15.90;99.90;;;;;;5030915;28;20438;-48
2021/08/30 07:58:44;;;;;;;7.00;3.70;;;15.80;99.90;;;;;;5019992;28;20462;-48
2021/08/30 08:01:15;;;;;;;5.27;3.30;;;15.80;99.90;;;;;;5019793;28;20450;-47
2021/08/30 08:03:47;;;;;;;4.60;3.00;;;15.70;99.90;;;;;;5019882;28;20446;-44
2021/08/30 08:06:20;;;;;;;5.23;3.07;;;15.70;99.90;;;;;;5020061;28;20487;-42
2021/08/30 08:08:51;;;;;;;5.20;3.40;;;15.70;99.90;;;;;;5019521;28;20435;-40
2021/08/30 08:11:24;;;;;;;5.23;3.10;;;15.70;99.90;;;;;;5019930;28;20490;-47
2021/08/30 08:13:55;;;;;;;5.97;3.33;;;15.60;99.90;;;;;;5019449;28;20454;-43
2021/08/30 08:16:27;;;;;;;4.47;2.90;;;15.60;99.90;;;;;;5022566;28;20454;-42
2021/08/30 08:18:58;;;;;;;5.57;3.43;;;15.50;99.90;;;;;;5023070;28;20935;-46
2021/08/30 08:21:30;;;;;;;7.33;3.80;;;15.50;99.90;;;;;;5023043;28;20482;-43
2021/08/30 08:24:01;;;;;;;6.70;3.33;;;15.40;99.90;;;;;;5036936;28;20446;-44
2021/08/30 08:26:34;;;;;;;6.10;3.43;;;15.40;99.90;;;;;;5043226;28;20433;-44
2021/08/30 08:29:05;;;;;;;5.97;3.47;;;15.30;99.90;;;;;;5042710;28;20564;-47
2021/08/30 08:31:37;;;;;;;8.47;3.93;;;15.30;99.90;;;;;;5042711;28;20553;-45
2021/08/30 08:34:08;;;;;;;5.23;3.50;;;15.20;99.90;;;;;;5042720;28;20453;-44
2021/08/30 08:36:40;;;;;;;7.03;3.93;;;15.20;99.90;;;;;;5043272;28;20453;-44
2021/08/30 08:39:11;;;;;;;6.47;3.17;;;15.10;99.90;;;;;;5042491;28;20444;-46
2021/08/30 08:41:44;;;;;;;5.37;3.33;;;15.10;99.90;;;;;;5042866;28;20808;-43
2021/08/30 08:44:15;;;;;;;7.27;3.70;;;15.10;99.90;;;;;;5042203;28;20513;-44
2021/08/30 08:46:47;;;;;;;6.20;3.03;;;15.00;99.90;;;;;;5042898;28;20585;-42
2021/08/30 08:49:20;;;;;;;5.30;3.30;;;15.00;99.90;;;;;;5042629;28;20460;-41
2021/08/30 08:51:52;;;;;;;5.57;3.23;;;15.00;99.90;;;;;;5042482;28;20499;-47
2021/08/30 08:54:23;;;;;;;6.20;3.07;;;14.90;99.90;;;;;;5042304;28;20494;-41
2021/08/30 08:56:56;;;;;;;5.30;2.90;;;14.90;99.90;;;;;;5028138;28;20479;-43
2021/08/30 08:59:28;;;;;;;5.73;3.50;;;14.80;99.90;;;;;;5022151;28;20503;-44
2021/08/30 09:02:19;;;;;;;6.50;3.87;;;14.80;99.90;;;;;;5022666;28;20454;-42
2021/08/30 09:04:50;;;;;;;7.47;4.00;;;14.80;99.90;;;;;;5022543;28;20454;-44
2021/08/30 09:07:21;;;;;;;7.40;3.60;;;14.70;99.90;;;;;;5022626;28;20450;-43
2021/08/30 09:09:57;;;;;;;6.87;3.50;;;14.60;99.90;;;;;;5021855;28;20522;-43
2021/08/30 09:12:30;;;;;;;5.43;3.67;;;14.60;99.90;;;;;;5022066;28;20519;-45
2021/08/30 09:15:12;;;;;;;8.03;3.90;;;14.60;99.90;;;;;;5022511;28;20446;-44
2021/08/30 09:17:50;;;;;;;3.87;3.07;;;14.60;99.90;;;;;;5022336;28;20453;-42
2021/08/30 09:20:24;;;;;;;6.37;4.20;;;14.50;99.90;;;;;;5022536;28;20503;-43
2021/08/30 09:22:55;;;;;;;10.93;5.00;;;14.50;99.90;;;;;;5026944;28;21268;-46
2021/08/30 09:25:29;;;;;;;5.97;3.37;;;14.40;99.90;;;;;;5041932;28;20454;-43
2021/08/30 09:28:01;;;;;;;4.50;3.50;;;14.40;99.90;;;;;;5040860;28;20437;-44
2021/08/30 09:30:33;;;;;;;7.83;3.30;;;14.30;99.90;;;;;;5042538;28;20434;-45
2021/08/30 09:33:04;;;;;;;5.17;3.80;;;14.30;99.90;;;;;;5041852;28;20524;-44
2021/08/30 09:35:37;;;;;;;5.40;3.30;;;14.30;99.90;;;;;;5042176;28;20469;-47
2021/08/30 09:38:18;;;;;;;6.63;4.00;;;14.20;99.90;;;;;;5041763;28;20479;-42
2021/08/30 09:40:50;;;;;;;5.80;4.03;;;14.20;99.90;;;;;;5041842;28;20958;-41
2021/08/30 09:43:23;;;;;;;4.93;3.50;;;14.10;99.90;;;;;;5041595;28;20437;-41
2021/08/30 09:46:00;;;;;;;11.33;4.63;;;14.00;99.90;;;;;;5042201;28;20471;-41
2021/08/30 09:48:34;;;;;;;6.90;3.87;;;13.80;99.90;;;;;;5042250;28;20533;-41
2021/08/30 09:51:06;;;;;;;7.50;3.63;;;13.80;99.90;;;;;;5041740;28;20458;-41
2021/08/30 09:53:39;;;;;;;4.80;3.53;;;13.80;99.90;;;;;;5041345;28;20496;-44
2021/08/30 09:56:11;;;;;;;9.23;3.97;;;13.70;99.90;;;;;;5032864;28;20515;-41
2021/08/30 09:58:47;;;;;;;8.10;4.73;;;13.80;99.90;;;;;;5021645;28;20566;-40
2021/08/30 10:01:20;;;;;;;4.50;3.70;;;13.70;99.90;;;;;;5022092;28;20429;-40
2021/08/30 10:03:52;;;;;;;9.23;4.57;;;13.70;99.90;;;;;;5022033;28;20785;-40
2021/08/30 10:06:23;;;;;;;8.77;3.83;;;13.70;99.90;;;;;;5022073;28;20523;-43
2021/08/30 10:08:55;;;;;;;8.70;3.97;;;13.70;99.90;;;;;;5021174;28;20515;-42
2021/08/30 10:11:26;;;;;;;5.77;3.90;;;13.70;99.90;;;;;;5021995;28;20851;-41
2021/08/30 10:13:59;;;;;;;7.73;4.17;;;13.60;99.90;;;;;;5021230;28;20472;-42
2021/08/30 10:16:30;;;;;;;8.13;4.40;;;13.60;99.90;;;;;;5021962;28;20499;-40
2021/08/30 10:19:01;;;;;;;8.33;4.03;;;13.60;99.90;;;;;;5021984;28;20963;-44
2021/08/30 10:21:33;;;;;;;5.93;4.20;;;13.60;99.90;;;;;;5021677;28;20531;-44
2021/08/30 10:24:14;;;;;;;5.37;3.70;;;13.60;99.90;;;;;;5035457;28;20441;-46
2021/08/30 10:26:47;;;;;;;6.90;4.27;;;13.50;99.90;;;;;;5041540;28;20475;-42
2021/08/30 10:29:20;;;;;;;7.37;4.20;;;13.40;99.90;;;;;;5041049;28;20841;-44
2021/08/30 10:31:53;;;;;;;8.70;4.87;;;13.40;99.90;;;;;;5041417;28;20492;-43
2021/08/30 10:34:27;;;;;;;7.53;3.83;;;13.30;99.90;;;;;;5041121;28;20578;-43
2021/08/30 10:36:59;;;;;;;6.33;3.93;;;13.30;99.90;;;;;;5041070;28;20564;-40
2021/08/30 10:39:39;;;;;;;8.10;3.83;;;13.30;99.90;;;;;;5040169;28;20501;-41
2021/08/30 10:42:13;;;;;;;11.27;4.10;;;13.30;99.90;;;;;;5040527;28;20449;-41
2021/08/30 10:44:53;;;;;;;4.87;3.80;;;13.20;99.90;;;;;;5040928;28;20465;-43
2021/08/30 10:47:27;;;;;;;9.60;3.87;;;13.10;99.90;;;;;;5040896;28;20457;-43
2021/08/30 10:49:58;;;;;;;8.67;4.20;;;13.10;99.90;;;;;;5040802;28;20434;-39
2021/08/30 10:52:39;;;;;;;6.70;4.10;;;13.10;99.90;;;;;;5040698;28;20934;-43
2021/08/30 10:55:17;;;;;;;8.07;4.50;;;13.10;99.90;;;;;;5040090;28;20445;-41
2021/08/30 10:57:52;;;;;;;8.50;4.23;;;13.10;99.90;;;;;;5020501;28;20445;-42
2021/08/30 11:00:33;;;;;;;8.97;5.10;;;13.00;99.90;;;;;;5020883;28;20450;-40
2021/08/30 11:03:05;;;;;;;6.50;3.67;;;13.00;99.90;;;;;;5020812;28;20454;-46
2021/08/30 11:05:36;;;;;;;5.07;3.73;;;12.90;99.90;;;;;;5020946;28;20530;-46
2021/08/30 11:08:08;;;;;;;5.40;3.80;;;12.80;99.90;;;;;;5020547;28;20503;-41
2021/08/30 11:10:39;;;;;;;7.77;4.10;;;12.80;99.90;;;;;;5020817;28;20460;-40
2021/08/30 11:13:11;;;;;;;6.67;4.47;;;12.80;99.90;;;;;;5020326;28;20547;-42
2021/08/30 11:15:43;;;;;;;6.80;4.40;;;12.80;99.90;;;;;;5020712;28;20460;-42
2021/08/30 11:18:14;;;;;;;4.67;3.20;;;12.80;99.90;;;;;;5020786;28;20518;-42
2021/08/30 11:20:50;;;;;;;5.00;3.70;;;12.70;99.90;;;;;;5020172;28;20450;-40
2021/08/30 11:23:21;;;;;;;5.80;3.90;;;12.60;99.90;;;;;;5028759;28;20441;-43
2021/08/30 11:25:52;;;;;;;7.70;4.90;;;12.60;99.90;;;;;;5040001;28;20430;-40
2021/08/30 11:28:33;;;;;;;6.97;4.23;;;12.70;99.90;;;;;;5040040;28;20452;-42
2021/08/30 11:31:10;;;;;;;10.80;3.83;;;12.70;99.90;;;;;;5040003;28;20477;-40
2021/08/30 11:33:41;;;;;;;11.00;4.40;;;12.70;99.90;;;;;;5040079;28;20493;-42
2021/08/30 11:36:12;;;;;;;9.67;4.43;;;12.70;99.90;;;;;;5040371;28;20460;-43
2021/08/30 11:38:53;;;;;;;6.03;4.20;;;12.70;99.90;;;;;;5040044;28;20486;-47
2021/08/30 11:41:25;;;;;;;6.63;4.63;;;12.60;99.90;;;;;;5040544;28;20441;-44
2021/08/30 11:44:06;;;;;;;4.90;3.50;;;12.60;99.90;;;;;;5039612;28;20445;-43
2021/08/30 11:46:46;;;;;;;7.60;4.30;;;12.50;99.90;;;;;;5040312;28;20486;-45
2021/08/30 11:49:17;;;;;;;6.43;4.37;;;12.60;99.90;;;;;;5040253;28;20538;-47
2021/08/30 11:51:49;;;;;;;6.70;4.30;;;12.50;99.90;;;;;;5046470;28;20448;-43
2021/08/30 11:54:26;;;;;;;9.60;4.40;;;12.50;99.90;;;;;;5045411;28;20550;-49
2021/08/30 11:57:00;;;;;;;8.20;4.50;;;12.50;99.90;;;;;;5031511;28;20437;-46
2021/08/30 11:59:33;;;;;;;9.60;4.83;;;12.40;99.90;;;;;;5026121;28;20895;-42
2021/08/30 12:02:07;;;;;;;8.17;4.20;;;12.40;99.90;;;;;;5026675;28;20449;-44
2021/08/30 12:04:39;;;;;;;5.57;4.40;;;12.30;99.90;;;;;;5026266;28;21025;-42
2021/08/30 12:07:12;;;;;;;7.83;4.53;;;12.40;99.90;;;;;;5026679;28;20473;-39
2021/08/30 12:09:46;;;;;;;10.03;4.07;;;12.30;99.90;;;;;;5025793;28;20469;-39
2021/08/30 12:12:20;;;;;;;5.40;4.20;;;12.20;99.90;;;;;;5026123;28;20482;-39
2021/08/30 12:14:59;;;;;;;9.47;4.57;;;12.20;99.90;;;;;;5026273;28;20489;-44
2021/08/30 12:17:34;;;;;;;8.50;3.97;;;12.20;99.90;;;;;;5026621;28;20448;-40
2021/08/30 12:20:09;;;;;;;8.73;5.70;;;12.10;99.90;;;;;;5026438;28;20446;-39
2021/08/30 12:22:42;;;;;;;5.80;4.60;;;12.20;99.90;;;;;;5029106;28;20468;-42
2021/08/30 12:25:18;;;;;;;7.30;4.37;;;12.10;99.90;;;;;;5045652;28;20502;-39
2021/08/30 12:27:51;;;;;;;11.97;5.17;;;12.10;99.90;;;;;;5045746;28;20882;-40
2021/08/30 12:30:25;;;;;;;9.30;4.50;;;12.10;99.90;;;;;;5046025;28;20473;-39
2021/08/30 12:33:06;;;;;;;6.80;4.63;;;12.00;99.90;;;;;;5045909;28;20429;-40
2021/08/30 12:35:39;;;;;;;10.50;5.30;;;12.10;99.90;;;;;;5045967;28;20448;-41
2021/08/30 12:38:11;;;;;;;13.00;4.53;;;12.10;99.90;;;;;;5045610;28;20449;-39
2021/08/30 12:40:48;;;;;;;6.23;4.57;;;12.10;99.90;;;;;;5045700;28;20460;-39
2021/08/30 12:43:19;;;;;;;7.20;4.80;;;12.10;99.90;;;;;;5045494;28;20445;-39
2021/08/30 12:45:51;;;;;;;6.53;4.57;;;12.10;99.90;;;;;;5045842;28;20821;-41
2021/08/30 12:48:25;;;;;;;4.97;4.30;;;12.10;99.90;;;;;;5046146;28;20442;-40
2021/08/30 12:50:56;;;;;;;8.33;4.30;;;12.20;99.90;;;;;;5045928;28;20466;-39
2021/08/30 12:53:27;;;;;;;10.03;5.00;;;12.20;99.90;;;;;;5045754;28;20484;-47
2021/08/30 12:55:59;;;;;;;5.53;4.20;;;12.10;99.90;;;;;;5038288;28;20457;-43
2021/08/30 12:58:30;;;;;;;6.50;4.00;;;12.10;99.90;;;;;;5025432;28;20456;-40
2021/08/30 13:01:01;;;;;;;9.10;4.60;;;12.00;99.90;;;;;;5024877;28;20549;-37
2021/08/30 13:03:34;;;;;;;7.97;4.50;;;12.00;99.90;;;;;;5022478;28;20559;-38
2021/08/30 13:06:06;;;;;;;7.37;4.63;;;11.90;99.90;;;;;;5022457;28;20457;-38
2021/08/30 13:08:38;;;;;;;7.87;3.83;;;11.90;99.90;;;;;;5022367;28;20427;-39
2021/08/30 13:11:09;;;;;;;8.17;4.77;;;11.80;99.90;;;;;;5022081;28;20446;-38
2021/08/30 13:13:41;;;;;;;10.23;4.83;;;11.80;99.90;;;;;;5021951;28;20478;-39
2021/08/30 13:16:12;;;;;;;10.07;6.03;;;11.80;99.90;;;;;;5022137;28;20495;-39